createdAt,value
2022-08-25T00:01:48.345Z,22.30
2022-08-25T00:04:17.030Z,22.20
2022-08-25T00:06:45.454Z,22.20
2022-08-25T00:09:15.075Z,22.10
2022-08-25T00:11:42.620Z,22.00
2022-08-25T00:14:13.695Z,21.90
2022-08-25T00:16:40.435Z,21.90
2022-08-25T00:19:11.539Z,21.80
2022-08-25T00:21:40.987Z,21.70
2022-08-25T00:24:09.438Z,21.70
2022-08-25T00:26:43.439Z,21.70
2022-08-25T00:29:14.141Z,21.70
2022-08-25T00:31:41.279Z,21.60
2022-08-25T00:34:10.557Z,21.60
2022-08-25T00:36:38.331Z,21.70
2022-08-25T00:39:06.997Z,21.60
2022-08-25T00:41:35.464Z,21.60
2022-08-25T00:44:04.929Z,21.50
2022-08-25T00:46:38.193Z,21.50
2022-08-25T00:49:20.872Z,21.60
2022-08-25T00:52:01.132Z,21.40
2022-08-25T00:54:36.385Z,21.40
2022-08-25T00:57:05.526Z,21.40
2022-08-25T00:59:32.444Z,21.50
2022-08-25T01:01:59.851Z,21.40
2022-08-25T01:04:27.137Z,21.40
2022-08-25T01:06:55.588Z,21.40
2022-08-25T01:09:22.456Z,21.30
2022-08-25T01:11:49.478Z,21.20
2022-08-25T01:14:19.210Z,21.20
2022-08-25T01:16:46.302Z,21.10
2022-08-25T01:19:17.590Z,21.10
2022-08-25T01:21:48.141Z,21.00
2022-08-25T01:24:37.622Z,20.90
2022-08-25T01:27:05.111Z,20.80
2022-08-25T01:29:32.233Z,20.90
2022-08-25T01:32:02.376Z,20.90
2022-08-25T01:34:32.361Z,20.80
2022-08-25T01:37:00.378Z,20.70
2022-08-25T01:39:29.235Z,20.80
2022-08-25T01:41:58.767Z,20.70
2022-08-25T01:44:26.099Z,20.60
2022-08-25T01:46:53.335Z,20.60
2022-08-25T01:49:20.036Z,20.60
2022-08-25T01:52:07.516Z,20.60
2022-08-25T01:54:34.156Z,20.60
2022-08-25T01:57:01.341Z,20.60
2022-08-25T01:59:28.218Z,20.50
2022-08-25T02:01:59.644Z,20.60
2022-08-25T02:04:32.155Z,20.50
2022-08-25T02:07:05.010Z,20.50
2022-08-25T02:09:32.100Z,20.50
2022-08-25T02:11:59.129Z,20.50
2022-08-25T02:14:26.073Z,20.40
2022-08-25T02:16:54.194Z,20.30
2022-08-25T02:19:24.227Z,20.30
2022-08-25T02:21:51.633Z,20.20
2022-08-25T02:24:18.772Z,20.10
2022-08-25T02:26:45.453Z,20.10
2022-08-25T02:29:12.089Z,20.20
2022-08-25T02:31:39.695Z,20.20
2022-08-25T02:34:08.103Z,20.20
2022-08-25T02:36:35.963Z,20.00
2022-08-25T02:39:04.066Z,20.10
2022-08-25T02:41:31.818Z,20.10
2022-08-25T02:44:03.425Z,20.10
2022-08-25T02:46:30.981Z,20.00
2022-08-25T02:48:58.540Z,20.00
2022-08-25T02:51:29.889Z,20.00
2022-08-25T02:54:01.989Z,20.10
2022-08-25T02:56:30.147Z,20.00
2022-08-25T02:58:56.976Z,19.90
2022-08-25T03:01:28.378Z,19.90
2022-08-25T03:03:56.822Z,19.80
2022-08-25T03:06:24.057Z,19.70
2022-08-25T03:08:51.497Z,19.70
2022-08-25T03:11:18.406Z,19.70
2022-08-25T03:13:45.418Z,19.70
2022-08-25T03:16:12.322Z,19.60
2022-08-25T03:18:41.560Z,19.60
2022-08-25T03:21:11.320Z,19.60
2022-08-25T03:23:38.627Z,19.60
2022-08-25T03:26:23.995Z,19.60
2022-08-25T03:28:50.636Z,19.40
2022-08-25T03:31:17.284Z,19.70
2022-08-25T03:33:43.931Z,19.80
2022-08-25T03:36:13.713Z,19.70
2022-08-25T03:38:40.958Z,19.50
2022-08-25T03:41:20.547Z,19.50
2022-08-25T03:43:48.717Z,19.40
2022-08-25T03:46:25.930Z,19.40
2022-08-25T03:48:53.633Z,19.40
2022-08-25T03:51:22.890Z,19.40
2022-08-25T03:53:50.474Z,19.40
2022-08-25T03:56:18.326Z,19.30
2022-08-25T03:58:45.809Z,19.30
2022-08-25T04:01:12.549Z,19.10
2022-08-25T04:03:39.756Z,19.10
2022-08-25T04:06:07.709Z,19.30
2022-08-25T04:08:37.872Z,19.20
2022-08-25T04:11:13.888Z,19.20
2022-08-25T04:13:42.286Z,19.30
2022-08-25T04:16:18.481Z,19.30
2022-08-25T04:18:46.179Z,19.30
2022-08-25T04:21:13.954Z,19.20
2022-08-25T04:23:43.297Z,19.30
2022-08-25T04:26:11.860Z,19.30
2022-08-25T04:28:38.813Z,19.40
2022-08-25T04:31:10.428Z,19.40
2022-08-25T04:33:38.559Z,19.50
2022-08-25T04:36:11.934Z,19.60
2022-08-25T04:38:40.938Z,19.60
2022-08-25T04:41:09.090Z,19.60
2022-08-25T04:43:38.943Z,19.60
2022-08-25T04:46:12.365Z,19.50
2022-08-25T04:48:41.734Z,19.40
2022-08-25T04:51:11.317Z,19.40
2022-08-25T04:53:38.720Z,19.60
2022-08-25T04:56:17.395Z,19.70
2022-08-25T04:58:47.173Z,19.80
2022-08-25T05:01:17.096Z,19.80
2022-08-25T05:03:45.475Z,19.80
2022-08-25T05:06:16.056Z,19.80
2022-08-25T05:08:43.147Z,19.80
2022-08-25T05:11:15.062Z,19.80
2022-08-25T05:13:43.541Z,19.90
2022-08-25T05:16:13.357Z,20.00
2022-08-25T05:18:40.006Z,20.00
2022-08-25T05:21:10.859Z,20.00
2022-08-25T05:23:38.064Z,20.00
2022-08-25T05:26:11.237Z,20.00
2022-08-25T05:28:43.656Z,20.00
2022-08-25T05:31:12.603Z,20.00
2022-08-25T05:33:40.078Z,20.10
2022-08-25T05:36:09.155Z,20.10
2022-08-25T05:38:36.861Z,20.20
2022-08-25T05:41:07.358Z,20.10
2022-08-25T05:43:34.049Z,20.20
2022-08-25T05:46:01.242Z,20.20
2022-08-25T05:48:27.981Z,20.30
2022-08-25T05:50:56.300Z,20.40
2022-08-25T05:53:23.889Z,20.30
2022-08-25T05:55:52.267Z,20.50
2022-08-25T05:58:19.045Z,20.50
2022-08-25T06:00:46.033Z,20.60
2022-08-25T06:03:16.592Z,20.50
2022-08-25T06:05:43.252Z,20.60
2022-08-25T06:08:10.919Z,20.70
2022-08-25T06:10:37.730Z,20.60
2022-08-25T06:13:04.801Z,20.80
2022-08-25T06:15:36.204Z,20.90
2022-08-25T06:18:03.420Z,20.90
2022-08-25T06:20:31.342Z,21.00
2022-08-25T06:22:59.244Z,21.10
2022-08-25T06:25:27.133Z,21.20
2022-08-25T06:27:55.105Z,21.30
2022-08-25T06:30:24.614Z,21.40
2022-08-25T06:32:55.424Z,21.40
2022-08-25T06:35:22.683Z,21.60
2022-08-25T06:37:49.298Z,21.60
2022-08-25T06:40:16.476Z,21.80
2022-08-25T06:42:46.896Z,21.90
2022-08-25T06:45:14.645Z,21.90
2022-08-25T06:47:41.378Z,22.00
2022-08-25T06:50:26.316Z,22.10
2022-08-25T06:52:52.952Z,22.30
2022-08-25T06:55:19.800Z,22.40
2022-08-25T06:57:46.774Z,22.40
2022-08-25T07:00:13.747Z,22.60
2022-08-25T07:02:40.949Z,22.70
2022-08-25T07:05:08.235Z,22.80
2022-08-25T07:07:44.021Z,22.90
2022-08-25T07:10:11.424Z,23.00
2022-08-25T07:12:38.222Z,23.10
2022-08-25T07:15:21.328Z,23.10
2022-08-25T07:17:49.128Z,23.20
2022-08-25T07:20:16.853Z,23.40
2022-08-25T07:22:46.016Z,23.40
2022-08-25T07:25:12.760Z,23.40
2022-08-25T07:27:41.254Z,23.50
2022-08-25T07:30:11.347Z,23.50
2022-08-25T07:32:38.278Z,23.70
2022-08-25T07:35:15.251Z,24.00
2022-08-25T07:37:50.466Z,24.10
2022-08-25T07:40:23.422Z,24.10
2022-08-25T07:42:52.207Z,24.30
2022-08-25T07:45:20.464Z,24.40
2022-08-25T07:47:47.992Z,24.50
2022-08-25T07:50:14.809Z,24.60
2022-08-25T07:52:41.712Z,24.60
2022-08-25T07:55:11.078Z,24.50
2022-08-25T07:57:40.072Z,24.50
2022-08-25T08:00:08.251Z,24.50
2022-08-25T08:02:38.407Z,24.70
2022-08-25T08:05:09.599Z,24.90
2022-08-25T08:07:43.170Z,25.20
2022-08-25T08:10:42.338Z,25.40
2022-08-25T08:12:59.649Z,25.40
2022-08-25T08:15:29.882Z,25.40
2022-08-25T08:18:00.637Z,25.60
2022-08-25T08:20:28.765Z,25.60
2022-08-25T08:22:55.513Z,25.60
2022-08-25T08:25:26.558Z,25.70
2022-08-25T08:27:55.547Z,26.00
2022-08-25T08:30:25.906Z,25.90
2022-08-25T08:33:09.200Z,25.80
2022-08-25T08:35:37.055Z,25.80
2022-08-25T08:38:06.918Z,25.90
2022-08-25T08:41:15.283Z,26.00
2022-08-25T08:43:46.148Z,26.20
2022-08-25T08:46:14.025Z,26.40
2022-08-25T08:48:51.912Z,26.40
2022-08-25T08:51:35.847Z,26.40
2022-08-25T08:54:20.652Z,26.80
2022-08-25T08:56:55.271Z,27.20
2022-08-25T08:59:29.784Z,27.00
2022-08-25T09:02:02.641Z,26.90
2022-08-25T09:04:37.050Z,27.00
2022-08-25T09:07:11.493Z,27.10
2022-08-25T09:09:41.928Z,27.20
2022-08-25T09:12:31.347Z,27.30
2022-08-25T09:15:57.727Z,27.40
2022-08-25T09:18:35.056Z,27.30
2022-08-25T09:21:19.006Z,27.50
2022-08-25T09:24:09.485Z,27.30
2022-08-25T09:27:08.428Z,27.30
2022-08-25T09:30:05.196Z,27.70
2022-08-25T09:32:38.436Z,27.70
2022-08-25T09:35:11.993Z,27.80
2022-08-25T09:37:38.602Z,28.00
2022-08-25T09:40:06.378Z,28.10
2022-08-25T09:42:49.959Z,27.80
2022-08-25T09:45:30.253Z,27.70
2022-08-25T09:47:56.881Z,27.80
2022-08-25T09:50:23.612Z,27.70
2022-08-25T09:52:53.541Z,27.80
2022-08-25T09:55:29.441Z,27.70
2022-08-25T09:57:59.313Z,27.60
2022-08-25T10:00:33.543Z,27.40
2022-08-25T10:03:05.764Z,27.30
2022-08-25T10:05:37.417Z,27.40
2022-08-25T10:08:24.663Z,27.40
2022-08-25T10:10:57.345Z,27.30
2022-08-25T10:13:41.287Z,27.40
2022-08-25T10:16:24.454Z,27.50
2022-08-25T10:19:14.001Z,27.60
2022-08-25T10:21:42.819Z,27.60
2022-08-25T10:24:12.225Z,27.70
2022-08-25T10:27:00.383Z,27.90
2022-08-25T10:29:52.643Z,28.20
2022-08-25T10:32:38.343Z,28.80
2022-08-25T10:35:13.253Z,29.10
2022-08-25T10:37:52.981Z,29.00
2022-08-25T10:40:19.565Z,29.20
2022-08-25T10:43:13.279Z,28.90
2022-08-25T10:45:50.948Z,28.90
2022-08-25T10:48:37.754Z,29.10
2022-08-25T10:51:28.601Z,28.80
2022-08-25T10:54:20.153Z,28.80
2022-08-25T10:57:13.045Z,29.20
2022-08-25T10:59:42.881Z,29.30
2022-08-25T11:02:41.550Z,29.50
2022-08-25T11:05:24.653Z,30.00
2022-08-25T11:08:16.857Z,30.30
2022-08-25T11:11:06.624Z,30.60
2022-08-25T11:13:57.117Z,30.80
2022-08-25T11:16:48.449Z,31.30
2022-08-25T11:19:33.750Z,31.20
2022-08-25T11:22:19.371Z,31.00
2022-08-25T11:25:04.875Z,30.80
2022-08-25T11:27:41.262Z,30.80
2022-08-25T11:30:11.699Z,30.90
2022-08-25T11:32:40.187Z,30.90
2022-08-25T11:35:12.189Z,31.00
2022-08-25T11:37:57.491Z,31.10
2022-08-25T11:41:02.426Z,31.40
2022-08-25T11:43:46.598Z,31.50
2022-08-25T11:46:44.516Z,31.80
2022-08-25T11:49:41.710Z,31.20
2022-08-25T11:52:34.762Z,30.90
2022-08-25T11:55:23.552Z,31.30
2022-08-25T11:57:53.799Z,31.60
2022-08-25T12:00:20.497Z,31.80
2022-08-25T12:02:50.424Z,31.50
2022-08-25T12:05:17.054Z,31.40
2022-08-25T12:08:25.318Z,31.70
2022-08-25T12:10:57.438Z,32.00
2022-08-25T12:13:49.280Z,31.90
2022-08-25T12:16:35.988Z,32.10
2022-08-25T12:19:57.107Z,32.50
2022-08-25T12:22:23.614Z,32.20
2022-08-25T12:25:06.788Z,32.40
2022-08-25T12:27:43.294Z,32.30
2022-08-25T12:30:31.137Z,31.80
2022-08-25T12:33:36.833Z,31.10
2022-08-25T12:36:11.040Z,31.60
2022-08-25T12:38:52.070Z,32.00
2022-08-25T12:41:26.012Z,31.60
2022-08-25T12:44:08.781Z,31.10
2022-08-25T12:46:39.271Z,30.80
2022-08-25T12:49:12.234Z,30.70
2022-08-25T12:51:59.070Z,30.50
2022-08-25T12:54:47.650Z,30.30
2022-08-25T12:57:41.276Z,30.30
2022-08-25T13:00:21.145Z,30.30
2022-08-25T13:03:27.028Z,30.70
2022-08-25T13:06:09.486Z,30.70
2022-08-25T13:09:19.446Z,31.40
2022-08-25T13:11:52.880Z,32.30
2022-08-25T13:14:38.681Z,32.80
2022-08-25T13:17:06.873Z,32.80
2022-08-25T13:19:37.315Z,33.00
2022-08-25T13:22:16.353Z,32.50
2022-08-25T13:24:45.126Z,32.00
2022-08-25T13:27:27.405Z,32.50
2022-08-25T13:29:59.699Z,33.30
2022-08-25T13:32:36.112Z,33.80
2022-08-25T13:35:20.119Z,33.90
2022-08-25T13:37:47.665Z,34.40
2022-08-25T13:40:26.873Z,34.30
2022-08-25T13:43:07.713Z,34.30
2022-08-25T13:45:42.407Z,34.50
2022-08-25T13:48:22.870Z,34.80
2022-08-25T13:50:53.175Z,35.10
2022-08-25T13:53:25.717Z,35.30
2022-08-25T13:55:58.624Z,35.10
2022-08-25T13:58:39.255Z,34.80
2022-08-25T14:01:48.635Z,34.20
2022-08-25T14:04:31.391Z,33.40
2022-08-25T14:07:19.448Z,33.00
2022-08-25T14:09:49.500Z,32.60
2022-08-25T14:12:33.123Z,32.40
2022-08-25T14:15:02.739Z,32.40
2022-08-25T14:17:38.154Z,32.70
2022-08-25T14:20:19.132Z,33.10
2022-08-25T14:22:46.309Z,33.70
2022-08-25T14:25:13.241Z,33.50
2022-08-25T14:28:06.536Z,33.30
2022-08-25T14:30:34.664Z,32.90
2022-08-25T14:33:03.869Z,32.50
2022-08-25T14:35:31.598Z,32.40
2022-08-25T14:37:58.334Z,32.20
2022-08-25T14:40:24.985Z,31.90
2022-08-25T14:42:51.705Z,31.70
2022-08-25T14:45:18.838Z,31.40
2022-08-25T14:47:49.844Z,31.30
2022-08-25T14:50:20.841Z,31.40
2022-08-25T14:52:48.130Z,31.40
2022-08-25T14:55:31.747Z,31.60
2022-08-25T14:57:59.784Z,32.70
2022-08-25T15:00:26.373Z,33.00
2022-08-25T15:02:54.980Z,33.10
2022-08-25T15:05:27.071Z,33.00
2022-08-25T15:08:14.940Z,32.40
2022-08-25T15:10:43.385Z,32.10
2022-08-25T15:13:10.624Z,32.20
2022-08-25T15:15:52.517Z,32.90
2022-08-25T15:18:20.702Z,33.60
2022-08-25T15:20:47.508Z,34.40
2022-08-25T15:23:18.275Z,35.00
2022-08-25T15:25:47.324Z,34.80
2022-08-25T15:28:17.223Z,35.10
2022-08-25T15:30:45.828Z,35.40
2022-08-25T15:33:13.495Z,35.50
2022-08-25T15:35:41.373Z,35.60
2022-08-25T15:38:08.495Z,35.50
2022-08-25T15:40:37.393Z,35.40
2022-08-25T15:43:04.261Z,35.40
2022-08-25T15:45:31.431Z,35.60
2022-08-25T15:47:58.167Z,35.40
2022-08-25T15:50:26.682Z,35.00
2022-08-25T15:52:53.566Z,35.20
2022-08-25T15:55:20.865Z,35.10
2022-08-25T15:57:49.678Z,34.90
2022-08-25T16:00:17.948Z,34.90
2022-08-25T16:02:45.440Z,34.90
2022-08-25T16:05:13.628Z,35.00
2022-08-25T16:07:41.068Z,34.60
2022-08-25T16:10:08.492Z,34.40
2022-08-25T16:12:35.383Z,33.90
2022-08-25T16:15:03.205Z,33.60
2022-08-25T16:17:29.764Z,33.70
2022-08-25T16:19:56.302Z,33.50
2022-08-25T16:22:23.465Z,33.60
2022-08-25T16:24:52.586Z,33.30
2022-08-25T16:27:19.863Z,33.20
2022-08-25T16:29:47.164Z,32.90
2022-08-25T16:32:15.209Z,32.80
2022-08-25T16:34:44.309Z,32.60
2022-08-25T16:37:11.299Z,32.30
2022-08-25T16:39:39.976Z,32.40
2022-08-25T16:42:07.877Z,32.20
2022-08-25T16:44:34.518Z,32.10
2022-08-25T16:47:01.301Z,31.90
2022-08-25T16:49:27.974Z,31.70
2022-08-25T16:51:57.118Z,31.60
2022-08-25T16:54:43.073Z,31.60
2022-08-25T16:57:09.650Z,31.70
2022-08-25T16:59:36.198Z,31.60
2022-08-25T17:02:04.011Z,31.30
2022-08-25T17:04:32.103Z,31.30
2022-08-25T17:06:59.631Z,31.30
2022-08-25T17:09:26.223Z,31.10
2022-08-25T17:11:56.502Z,31.00
2022-08-25T17:14:23.177Z,30.80
2022-08-25T17:16:54.414Z,30.90
2022-08-25T17:19:21.265Z,30.80
2022-08-25T17:21:50.446Z,30.60
2022-08-25T17:24:18.245Z,30.60
2022-08-25T17:26:47.740Z,30.50
2022-08-25T17:29:17.267Z,30.40
2022-08-25T17:31:46.010Z,30.40
2022-08-25T17:34:16.432Z,30.30
2022-08-25T17:36:44.203Z,30.20
2022-08-25T17:39:14.249Z,30.10
2022-08-25T17:41:43.831Z,30.10
2022-08-25T17:44:10.735Z,29.90
2022-08-25T17:46:41.791Z,29.90
2022-08-25T17:49:14.842Z,29.80
2022-08-25T17:51:42.343Z,29.70
2022-08-25T17:54:08.964Z,29.60
2022-08-25T17:56:35.682Z,29.60
2022-08-25T17:59:02.446Z,29.60
2022-08-25T18:01:33.558Z,29.40
2022-08-25T18:04:00.710Z,29.40
2022-08-25T18:06:31.746Z,29.20
2022-08-25T18:09:01.341Z,29.10
2022-08-25T18:11:28.884Z,29.00
2022-08-25T18:13:57.030Z,28.80
2022-08-25T18:16:24.460Z,28.80
2022-08-25T18:18:53.139Z,28.70
2022-08-25T18:21:20.786Z,28.60
2022-08-25T18:23:49.344Z,28.50
2022-08-25T18:26:16.163Z,28.50
2022-08-25T18:28:43.881Z,28.40
2022-08-25T18:31:12.003Z,28.30
2022-08-25T18:33:41.873Z,28.20
2022-08-25T18:36:09.058Z,28.20
2022-08-25T18:38:57.819Z,28.10
2022-08-25T18:41:25.217Z,28.00
2022-08-25T18:43:52.777Z,27.80
2022-08-25T18:46:19.482Z,27.80
2022-08-25T18:48:50.005Z,27.80
2022-08-25T18:51:23.167Z,27.70
2022-08-25T18:53:51.090Z,27.60
2022-08-25T18:56:19.202Z,27.50
2022-08-25T18:58:46.888Z,27.50
2022-08-25T19:01:15.385Z,27.30
2022-08-25T19:03:42.992Z,27.30
2022-08-25T19:06:09.809Z,27.20
2022-08-25T19:08:39.356Z,27.10
2022-08-25T19:11:09.592Z,27.00
2022-08-25T19:13:37.050Z,26.90
2022-08-25T19:16:20.470Z,26.80
2022-08-25T19:18:48.742Z,26.80
2022-08-25T19:21:15.557Z,26.80
2022-08-25T19:23:42.112Z,26.90
2022-08-25T19:26:16.853Z,26.70
2022-08-25T19:28:45.794Z,26.50
2022-08-25T19:31:15.519Z,26.50
2022-08-25T19:33:45.934Z,26.50
2022-08-25T19:36:12.841Z,26.50
2022-08-25T19:38:39.537Z,26.50
2022-08-25T19:41:10.547Z,26.50
2022-08-25T19:43:56.126Z,26.40
2022-08-25T19:46:32.646Z,26.30
2022-08-25T19:49:08.054Z,26.20
2022-08-25T19:51:37.389Z,26.10
2022-08-25T19:54:04.531Z,26.00
2022-08-25T19:56:33.532Z,25.90
2022-08-25T19:59:00.222Z,25.90
2022-08-25T20:01:27.239Z,26.00
2022-08-25T20:03:55.134Z,25.90
2022-08-25T20:06:24.106Z,26.10
2022-08-25T20:08:58.752Z,26.10
2022-08-25T20:11:27.126Z,25.90
2022-08-25T20:13:54.505Z,25.80
2022-08-25T20:16:21.458Z,25.70
2022-08-25T20:18:48.121Z,25.80
2022-08-25T20:21:15.006Z,25.80
2022-08-25T20:24:00.391Z,25.80
2022-08-25T20:26:29.017Z,25.80
2022-08-25T20:28:57.226Z,25.60
2022-08-25T20:31:23.961Z,25.60
2022-08-25T20:33:50.559Z,25.50
2022-08-25T20:36:18.263Z,25.40
2022-08-25T20:38:45.502Z,25.30
2022-08-25T20:41:13.055Z,25.40
2022-08-25T20:43:40.843Z,25.40
2022-08-25T20:46:08.493Z,25.50
2022-08-25T20:48:36.234Z,25.30
2022-08-25T20:51:10.455Z,25.30
2022-08-25T20:53:39.370Z,25.30
2022-08-25T20:56:08.827Z,25.30
2022-08-25T20:58:43.189Z,25.30
2022-08-25T21:01:20.429Z,25.30
2022-08-25T21:03:50.387Z,25.30
2022-08-25T21:06:17.181Z,25.30
2022-08-25T21:08:45.087Z,25.30
2022-08-25T21:11:15.329Z,25.20
2022-08-25T21:13:42.168Z,25.30
2022-08-25T21:16:09.197Z,25.30
2022-08-25T21:18:36.353Z,25.10
2022-08-25T21:21:13.254Z,24.90
2022-08-25T21:23:41.018Z,25.00
2022-08-25T21:26:17.932Z,25.00
2022-08-25T21:28:47.548Z,25.00
2022-08-25T21:31:16.115Z,24.90
2022-08-25T21:33:43.007Z,24.90
2022-08-25T21:36:11.277Z,25.00
2022-08-25T21:38:39.911Z,25.00
2022-08-25T21:41:11.723Z,25.00
2022-08-25T21:43:39.557Z,24.90
2022-08-25T21:46:13.101Z,25.00
2022-08-25T21:48:40.179Z,24.90
2022-08-25T21:51:12.566Z,24.70
2022-08-25T21:53:39.592Z,24.70
2022-08-25T21:56:09.547Z,24.70
2022-08-25T21:58:38.201Z,24.60
2022-08-25T22:01:11.228Z,24.60
2022-08-25T22:03:38.953Z,24.60
2022-08-25T22:06:07.757Z,24.60
2022-08-25T22:08:37.870Z,24.60
2022-08-25T22:11:06.313Z,24.60
2022-08-25T22:13:34.413Z,24.50
2022-08-25T22:16:01.032Z,24.50
2022-08-25T22:18:28.349Z,24.50
2022-08-25T22:20:55.406Z,24.50
2022-08-25T22:23:22.694Z,24.50
2022-08-25T22:25:55.943Z,24.50
2022-08-25T22:28:24.282Z,24.50
2022-08-25T22:30:50.904Z,24.40
2022-08-25T22:33:17.770Z,24.30
2022-08-25T22:35:44.490Z,24.30
2022-08-25T22:38:12.267Z,24.30
2022-08-25T22:40:40.224Z,24.20
2022-08-25T22:43:08.543Z,24.20
2022-08-25T22:45:37.729Z,24.10
2022-08-25T22:48:05.433Z,24.00
2022-08-25T22:50:35.949Z,24.00
2022-08-25T22:53:02.675Z,23.90
2022-08-25T22:55:30.809Z,23.80
2022-08-25T22:57:57.402Z,23.80
2022-08-25T23:00:24.094Z,23.80
2022-08-25T23:02:53.148Z,23.80
2022-08-25T23:05:20.056Z,23.80
2022-08-25T23:07:47.502Z,23.70
2022-08-25T23:10:14.225Z,23.70
2022-08-25T23:12:43.790Z,23.60
2022-08-25T23:15:12.425Z,23.60
2022-08-25T23:17:39.131Z,23.50
2022-08-25T23:20:27.089Z,23.50
2022-08-25T23:22:54.477Z,23.60
2022-08-25T23:25:21.602Z,23.50
2022-08-25T23:27:48.353Z,23.40
2022-08-25T23:30:18.370Z,23.30
2022-08-25T23:32:45.091Z,23.20
2022-08-25T23:35:14.586Z,23.20
2022-08-25T23:37:41.170Z,23.30
2022-08-25T23:40:11.802Z,23.40
2022-08-25T23:42:40.334Z,23.40
2022-08-25T23:45:09.354Z,23.40
2022-08-25T23:47:37.826Z,23.30
2022-08-25T23:50:04.894Z,23.40
2022-08-25T23:52:31.539Z,23.20
2022-08-25T23:54:58.143Z,23.10
2022-08-25T23:57:25.005Z,23.10
2022-08-25T23:59:51.643Z,22.90
